createdAt,value
2022-11-04T00:01:34.059Z,3.20
2022-11-04T00:04:01.958Z,0.82
2022-11-04T00:06:29.901Z,3.20
2022-11-04T00:09:00.342Z,3.85
2022-11-04T00:11:46.810Z,3.03
2022-11-04T00:14:15.865Z,2.13
2022-11-04T00:17:01.520Z,3.75
2022-11-04T00:19:29.444Z,3.70
2022-11-04T00:22:14.968Z,2.00
2022-11-04T00:25:01.985Z,1.35
2022-11-04T00:27:47.352Z,2.70
2022-11-04T00:30:15.241Z,2.00
2022-11-04T00:33:09.064Z,5.10
2022-11-04T00:35:37.066Z,4.13
2022-11-04T00:38:05.199Z,2.72
2022-11-04T00:40:34.573Z,3.80
2022-11-04T00:43:02.472Z,1.88
2022-11-04T00:45:30.394Z,3.33
2022-11-04T00:47:58.306Z,2.45
2022-11-04T00:50:26.197Z,2.97
2022-11-04T00:53:00.046Z,1.23
2022-11-04T00:55:28.196Z,2.40
2022-11-04T00:57:58.729Z,1.00
2022-11-04T01:00:26.646Z,1.83
2022-11-04T01:02:54.948Z,2.25
2022-11-04T01:05:22.883Z,2.63
2022-11-04T01:07:50.804Z,3.10
2022-11-04T01:10:19.024Z,2.58
2022-11-04T01:12:46.947Z,2.20
2022-11-04T01:15:16.287Z,1.73
2022-11-04T01:17:44.193Z,3.20
2022-11-04T01:20:13.851Z,2.50
2022-11-04T01:22:41.836Z,2.40
2022-11-04T01:25:10.776Z,2.10
2022-11-04T01:27:38.691Z,1.52
2022-11-04T01:30:08.204Z,4.15
2022-11-04T01:32:37.590Z,2.30
2022-11-04T01:35:06.332Z,1.27
2022-11-04T01:37:34.216Z,2.70
2022-11-04T01:40:02.276Z,0.80
2022-11-04T01:42:30.199Z,2.75
2022-11-04T01:44:59.624Z,2.30
2022-11-04T01:47:36.990Z,3.05
2022-11-04T01:50:11.065Z,2.67
2022-11-04T01:52:45.058Z,1.30
2022-11-04T01:55:17.322Z,1.75
2022-11-04T01:57:49.886Z,1.20
2022-11-04T02:00:19.211Z,3.20
2022-11-04T02:02:55.722Z,3.55
2022-11-04T02:05:25.038Z,3.95
2022-11-04T02:07:57.863Z,2.70
2022-11-04T02:10:28.708Z,3.00
2022-11-04T02:12:56.624Z,6.00
2022-11-04T02:15:38.502Z,1.73
2022-11-04T02:18:32.414Z,2.00
2022-11-04T02:21:47.245Z,2.03
2022-11-04T02:24:57.036Z,1.45
2022-11-04T02:27:37.342Z,4.22
2022-11-04T02:30:13.135Z,2.70
2022-11-04T02:33:02.570Z,3.40
2022-11-04T02:35:41.471Z,1.50
2022-11-04T02:38:17.287Z,1.65
2022-11-04T02:40:55.260Z,1.15
2022-11-04T02:43:29.239Z,2.22
2022-11-04T02:46:05.172Z,5.40
2022-11-04T02:48:40.151Z,1.80
2022-11-04T02:51:15.237Z,2.10
2022-11-04T02:53:48.600Z,1.70
2022-11-04T02:56:18.944Z,2.55
2022-11-04T02:58:52.243Z,1.75
2022-11-04T03:01:23.800Z,2.00
2022-11-04T03:03:57.944Z,1.30
2022-11-04T03:06:28.048Z,2.20
2022-11-04T03:08:56.998Z,2.20
2022-11-04T03:11:27.349Z,1.40
2022-11-04T03:13:58.835Z,2.08
2022-11-04T03:16:33.504Z,1.30
2022-11-04T03:19:08.828Z,1.20
2022-11-04T03:21:42.120Z,2.00
2022-11-04T03:24:11.905Z,2.00
2022-11-04T03:26:46.094Z,2.42
2022-11-04T03:29:23.607Z,2.80
2022-11-04T03:32:06.147Z,3.58
2022-11-04T03:34:34.483Z,2.00
2022-11-04T03:37:02.623Z,2.72
2022-11-04T03:39:30.779Z,2.10
2022-11-04T03:42:01.736Z,2.50
2022-11-04T03:44:31.262Z,5.70
2022-11-04T03:47:01.280Z,2.75
2022-11-04T03:49:29.359Z,4.05
2022-11-04T03:51:59.051Z,3.50
2022-11-04T03:54:26.923Z,5.33
2022-11-04T03:57:11.253Z,4.88
2022-11-04T04:00:06.985Z,5.30
2022-11-04T04:02:59.745Z,5.65
2022-11-04T04:05:30.562Z,6.30
2022-11-04T04:08:09.817Z,5.87
2022-11-04T04:10:42.520Z,7.63
2022-11-04T04:13:25.064Z,6.53
2022-11-04T04:15:58.443Z,7.37
2022-11-04T04:18:35.123Z,9.25
2022-11-04T04:21:07.028Z,6.85
2022-11-04T04:23:54.773Z,8.00
2022-11-04T04:26:42.721Z,7.70
2022-11-04T04:29:11.886Z,8.13
2022-11-04T04:31:50.954Z,9.07
2022-11-04T04:34:22.624Z,8.80
2022-11-04T04:36:56.613Z,9.10
2022-11-04T04:39:47.759Z,9.77
2022-11-04T04:42:33.068Z,14.20
2022-11-04T04:45:03.599Z,9.82
2022-11-04T04:47:42.928Z,13.07
2022-11-04T04:50:14.081Z,9.43
2022-11-04T04:52:44.215Z,10.23
2022-11-04T04:55:12.759Z,11.00
2022-11-04T04:57:40.708Z,10.40
2022-11-04T05:00:12.799Z,12.07
2022-11-04T05:02:40.764Z,12.50
2022-11-04T05:05:09.853Z,10.80
2022-11-04T05:07:39.102Z,10.07
2022-11-04T05:10:08.285Z,9.55
2022-11-04T05:12:54.326Z,9.63
2022-11-04T05:15:22.364Z,9.50
2022-11-04T05:17:55.536Z,11.07
2022-11-04T05:20:24.001Z,10.02
2022-11-04T05:22:53.332Z,9.15
2022-11-04T05:25:21.280Z,10.20
2022-11-04T05:27:49.293Z,12.00
2022-11-04T05:30:17.360Z,8.90
2022-11-04T05:32:45.259Z,10.73
2022-11-04T05:35:13.229Z,8.55
2022-11-04T05:37:41.122Z,10.18
2022-11-04T05:40:11.879Z,8.10
2022-11-04T05:42:39.840Z,10.02
2022-11-04T05:45:08.842Z,11.10
2022-11-04T05:47:36.863Z,10.45
2022-11-04T05:50:05.188Z,8.73
2022-11-04T05:52:33.088Z,10.00
2022-11-04T05:55:01.041Z,10.38
2022-11-04T05:57:30.293Z,11.38
2022-11-04T05:59:58.231Z,8.98
2022-11-04T06:02:26.236Z,8.95
2022-11-04T06:04:54.455Z,9.63
2022-11-04T06:07:22.335Z,12.15
2022-11-04T06:09:50.375Z,13.10
2022-11-04T06:12:18.381Z,11.52
2022-11-04T06:14:47.632Z,10.38
2022-11-04T06:17:17.085Z,10.55
2022-11-04T06:19:45.120Z,12.33
2022-11-04T06:22:14.285Z,9.98
2022-11-04T06:24:42.507Z,9.83
2022-11-04T06:27:11.098Z,10.45
2022-11-04T06:29:41.219Z,8.73
2022-11-04T06:32:11.360Z,11.75
2022-11-04T06:34:39.583Z,9.48
2022-11-04T06:37:07.594Z,10.48
2022-11-04T06:39:35.530Z,11.40
2022-11-04T06:42:04.332Z,10.50
2022-11-04T06:44:33.993Z,10.55
2022-11-04T06:47:02.728Z,8.80
2022-11-04T06:49:31.955Z,11.10
2022-11-04T06:52:01.052Z,11.38
2022-11-04T06:54:29.038Z,8.88
2022-11-04T06:56:56.939Z,6.97
2022-11-04T06:59:25.017Z,6.90
2022-11-04T07:01:53.130Z,6.50
2022-11-04T07:04:21.154Z,9.18
2022-11-04T07:06:50.379Z,9.95
2022-11-04T07:09:18.555Z,11.25
2022-11-04T07:11:46.889Z,7.18
2022-11-04T07:14:14.953Z,8.53
2022-11-04T07:16:42.872Z,6.83
2022-11-04T07:19:10.837Z,9.52
2022-11-04T07:21:38.764Z,7.78
2022-11-04T07:24:08.490Z,4.75
2022-11-04T07:26:36.455Z,7.35
2022-11-04T07:29:06.593Z,7.93
2022-11-04T07:31:34.492Z,5.80
2022-11-04T07:34:03.113Z,5.70
2022-11-04T07:36:31.219Z,5.85
2022-11-04T07:38:59.128Z,9.13
2022-11-04T07:41:28.904Z,7.38
2022-11-04T07:43:58.802Z,7.17
2022-11-04T07:46:26.744Z,7.97
2022-11-04T07:48:57.915Z,11.90
2022-11-04T07:51:27.218Z,6.95
2022-11-04T07:53:56.521Z,6.95
2022-11-04T07:56:25.026Z,5.60
2022-11-04T07:58:54.301Z,7.35
2022-11-04T08:01:24.553Z,9.25
2022-11-04T08:03:52.997Z,6.00
2022-11-04T08:06:21.914Z,8.18
2022-11-04T08:08:50.038Z,9.05
2022-11-04T08:11:21.247Z,6.63
2022-11-04T08:13:49.302Z,7.70
2022-11-04T08:16:20.068Z,6.90
2022-11-04T08:18:49.345Z,8.60
2022-11-04T08:21:17.494Z,8.50
2022-11-04T08:23:46.142Z,7.30
2022-11-04T08:26:18.356Z,7.80
2022-11-04T08:28:46.602Z,8.80
2022-11-04T08:31:18.946Z,11.05
2022-11-04T08:33:47.253Z,11.13
2022-11-04T08:36:17.400Z,9.45
2022-11-04T08:38:45.744Z,7.65
2022-11-04T08:41:14.953Z,11.10
2022-11-04T08:43:43.041Z,11.38
2022-11-04T08:46:12.217Z,8.07
2022-11-04T08:48:42.504Z,8.40
2022-11-04T08:51:15.334Z,7.53
2022-11-04T08:53:43.462Z,10.75
2022-11-04T08:56:13.950Z,6.20
2022-11-04T08:58:42.139Z,7.05
2022-11-04T09:01:10.826Z,10.18
2022-11-04T09:03:39.788Z,9.90
2022-11-04T09:06:11.090Z,10.20
2022-11-04T09:08:39.244Z,7.55
2022-11-04T09:11:09.724Z,9.43
2022-11-04T09:13:39.940Z,10.87
2022-11-04T09:16:10.236Z,9.65
2022-11-04T09:18:38.268Z,12.50
2022-11-04T09:21:08.261Z,13.45
2022-11-04T09:23:38.241Z,12.90
2022-11-04T09:26:09.053Z,11.30
2022-11-04T09:28:37.206Z,9.45
2022-11-04T09:31:09.285Z,10.48
2022-11-04T09:33:37.423Z,9.10
2022-11-04T09:36:08.679Z,10.00
2022-11-04T09:38:38.473Z,8.87
2022-11-04T09:41:25.708Z,9.23
2022-11-04T09:44:00.848Z,8.85
2022-11-04T09:46:32.260Z,9.50
2022-11-04T09:49:04.644Z,11.48
2022-11-04T09:51:53.079Z,10.70
2022-11-04T09:54:25.339Z,10.40
2022-11-04T09:56:56.317Z,9.82
2022-11-04T09:59:28.400Z,11.52
2022-11-04T10:02:08.654Z,8.85
2022-11-04T10:04:49.208Z,12.02
2022-11-04T10:07:31.769Z,13.30
2022-11-04T10:10:11.962Z,10.93
2022-11-04T10:13:06.969Z,13.88
2022-11-04T10:16:20.291Z,8.40
2022-11-04T10:19:08.633Z,8.75
2022-11-04T10:21:45.748Z,8.23
2022-11-04T10:24:21.463Z,13.27
2022-11-04T10:26:59.103Z,8.27
2022-11-04T10:29:34.052Z,11.43
2022-11-04T10:32:04.667Z,10.18
2022-11-04T10:34:38.587Z,9.55
2022-11-04T10:37:12.006Z,9.98
2022-11-04T10:39:44.949Z,8.65
2022-11-04T10:42:17.839Z,10.48
2022-11-04T10:44:48.085Z,12.00
2022-11-04T10:47:27.364Z,11.00
2022-11-04T10:50:27.684Z,9.68
2022-11-04T10:52:57.274Z,9.70
2022-11-04T10:55:36.557Z,10.73
2022-11-04T10:58:17.548Z,11.57
2022-11-04T11:00:45.665Z,10.00
2022-11-04T11:03:26.950Z,11.23
2022-11-04T11:05:56.116Z,11.80
2022-11-04T11:08:32.494Z,10.47
2022-11-04T11:11:00.934Z,10.70
2022-11-04T11:13:37.103Z,9.65
2022-11-04T11:16:13.624Z,10.55
2022-11-04T11:18:42.349Z,10.75
2022-11-04T11:21:13.515Z,10.95
2022-11-04T11:23:45.303Z,10.13
2022-11-04T11:26:17.335Z,10.43
2022-11-04T11:28:58.336Z,10.60
2022-11-04T11:31:27.660Z,8.35
2022-11-04T11:33:58.910Z,6.07
2022-11-04T11:36:28.061Z,4.28
2022-11-04T11:39:05.540Z,6.10
2022-11-04T11:41:39.562Z,4.85
2022-11-04T11:44:25.451Z,4.60
2022-11-04T11:46:55.699Z,4.50
2022-11-04T11:49:29.119Z,5.72
2022-11-04T11:51:58.036Z,2.28
2022-11-04T11:54:33.732Z,4.10
2022-11-04T11:57:14.594Z,2.80
2022-11-04T12:02:44.038Z,4.57
2022-11-04T12:11:03.954Z,3.35
2022-11-04T12:13:40.339Z,1.83
2022-11-04T12:16:27.467Z,0.82
2022-11-04T12:19:07.363Z,1.00
2022-11-04T12:21:40.253Z,4.30
2022-11-04T12:24:27.606Z,3.10
2022-11-04T12:27:01.162Z,1.00
2022-11-04T12:29:41.291Z,2.63
2022-11-04T12:32:21.209Z,1.57
2022-11-04T12:35:04.689Z,2.40
2022-11-04T12:37:39.347Z,1.55
2022-11-04T12:40:16.468Z,2.17
2022-11-04T12:42:55.434Z,1.75
2022-11-04T12:45:34.220Z,1.50
2022-11-04T12:48:09.004Z,2.10
2022-11-04T12:50:56.909Z,1.65
2022-11-04T12:53:41.240Z,1.40
2022-11-04T12:56:11.945Z,1.00
2022-11-04T12:59:03.710Z,1.53
2022-11-04T13:01:38.775Z,1.60
2022-11-04T13:04:13.793Z,2.20
2022-11-04T13:06:44.307Z,3.05
2022-11-04T13:09:17.926Z,0.90
2022-11-04T13:11:51.561Z,2.25
2022-11-04T13:14:29.325Z,1.80
2022-11-04T13:17:01.214Z,1.50
2022-11-04T13:19:35.818Z,1.40
2022-11-04T13:22:08.602Z,1.58
2022-11-04T13:24:40.461Z,0.73
2022-11-04T13:27:19.302Z,2.50
2022-11-04T13:29:48.048Z,1.50
2022-11-04T13:32:25.324Z,1.40
2022-11-04T13:35:02.519Z,2.00
2022-11-04T13:37:34.951Z,2.03
2022-11-04T13:40:11.596Z,1.67
2022-11-04T13:43:30.325Z,2.30
2022-11-04T13:45:58.707Z,2.10
2022-11-04T13:48:28.891Z,1.23
2022-11-04T13:51:01.159Z,2.15
2022-11-04T13:53:44.146Z,2.65
2022-11-04T13:56:33.227Z,1.58
2022-11-04T13:59:06.767Z,2.70
2022-11-04T14:01:36.246Z,1.40
2022-11-04T14:04:22.307Z,2.92
2022-11-04T14:06:58.463Z,1.90
2022-11-04T14:09:52.281Z,3.00
2022-11-04T14:12:32.938Z,1.90
2022-11-04T14:15:13.659Z,1.47
2022-11-04T14:18:06.853Z,1.70
2022-11-04T14:20:38.575Z,3.70
2022-11-04T14:23:21.762Z,2.55
2022-11-04T14:26:01.568Z,3.10
2022-11-04T14:28:31.016Z,2.10
2022-11-04T14:31:00.727Z,1.27
2022-11-04T14:33:39.314Z,2.58
2022-11-04T14:36:38.882Z,1.50
2022-11-04T14:39:23.239Z,2.22
2022-11-04T14:41:57.422Z,0.98
2022-11-04T14:44:37.465Z,2.55
2022-11-04T14:47:18.454Z,1.83
2022-11-04T14:49:48.332Z,2.13
2022-11-04T14:52:22.960Z,2.30
2022-11-04T14:54:57.010Z,1.10
2022-11-04T14:57:25.593Z,1.55
2022-11-04T14:59:53.886Z,1.98
2022-11-04T15:02:24.848Z,1.60
2022-11-04T15:04:57.468Z,2.92
2022-11-04T15:07:32.585Z,2.47
2022-11-04T15:10:03.330Z,1.80
2022-11-04T15:12:48.902Z,4.60
2022-11-04T15:15:38.745Z,1.97
2022-11-04T15:18:09.072Z,2.75
2022-11-04T15:20:42.000Z,1.75
2022-11-04T15:23:16.020Z,2.60
2022-11-04T15:25:50.448Z,4.72
2022-11-04T15:28:21.303Z,2.30
2022-11-04T15:31:00.870Z,2.65
2022-11-04T15:33:29.944Z,2.40
2022-11-04T15:35:59.745Z,2.50
2022-11-04T15:38:29.327Z,2.10
2022-11-04T15:41:20.259Z,1.88
2022-11-04T15:43:47.596Z,1.17
2022-11-04T15:46:20.353Z,2.00
2022-11-04T15:49:20.892Z,2.42
2022-11-04T15:51:49.342Z,1.88
2022-11-04T15:54:23.047Z,2.60
2022-11-04T15:56:56.050Z,1.40
2022-11-04T15:59:26.689Z,1.20
2022-11-04T16:01:58.005Z,2.67
2022-11-04T16:04:27.921Z,3.25
2022-11-04T16:07:21.456Z,2.72
2022-11-04T16:09:51.518Z,2.35
2022-11-04T16:12:28.742Z,2.80
2022-11-04T16:14:58.135Z,2.85
2022-11-04T16:17:27.387Z,1.48
2022-11-04T16:19:58.907Z,3.65
2022-11-04T16:22:31.003Z,3.80
2022-11-04T16:25:00.317Z,3.22
2022-11-04T16:27:31.647Z,3.10
2022-11-04T16:30:10.467Z,1.65
2022-11-04T16:32:43.320Z,2.20
2022-11-04T16:35:17.895Z,2.35
2022-11-04T16:37:46.009Z,4.40
2022-11-04T16:40:15.636Z,2.60
2022-11-04T16:42:46.276Z,3.13
2022-11-04T16:45:25.809Z,4.43
2022-11-04T16:47:54.593Z,2.50
2022-11-04T16:50:24.355Z,5.18
2022-11-04T16:52:52.645Z,2.45
2022-11-04T16:55:22.740Z,5.25
2022-11-04T16:57:58.886Z,3.42
2022-11-04T17:00:28.643Z,3.42
2022-11-04T17:02:56.513Z,4.25
2022-11-04T17:05:24.501Z,5.90
2022-11-04T17:07:55.533Z,7.70
2022-11-04T17:10:28.546Z,4.43
2022-11-04T17:12:57.830Z,5.85
2022-11-04T17:15:25.988Z,7.53
2022-11-04T17:17:53.868Z,3.65
2022-11-04T17:20:22.030Z,3.25
2022-11-04T17:22:50.871Z,3.45
2022-11-04T17:25:21.086Z,4.20
2022-11-04T17:27:49.316Z,4.35
2022-11-04T17:30:19.563Z,7.13
2022-11-04T17:32:48.387Z,4.35
2022-11-04T17:35:17.574Z,5.38
2022-11-04T17:37:45.570Z,5.57
2022-11-04T17:40:16.220Z,2.22
2022-11-04T17:43:04.376Z,6.55
2022-11-04T17:45:37.764Z,5.90
2022-11-04T17:48:06.377Z,7.28
2022-11-04T17:50:34.743Z,9.88
2022-11-04T17:53:02.811Z,12.13
2022-11-04T17:55:30.885Z,13.57
2022-11-04T17:57:58.760Z,9.02
2022-11-04T18:00:29.662Z,13.45
2022-11-04T18:02:59.109Z,14.32
2022-11-04T18:05:26.990Z,9.10
2022-11-04T18:07:56.389Z,7.80
2022-11-04T18:10:24.323Z,7.80
2022-11-04T18:12:51.287Z,9.60
2022-11-04T18:15:19.201Z,8.20
2022-11-04T18:17:49.944Z,8.30
2022-11-04T18:20:19.304Z,10.50
2022-11-04T18:22:47.358Z,9.80
2022-11-04T18:25:15.254Z,8.50
2022-11-04T18:27:43.224Z,9.02
2022-11-04T18:30:12.137Z,10.75
2022-11-04T18:32:40.039Z,7.35
2022-11-04T18:35:08.975Z,10.45
2022-11-04T18:37:39.759Z,10.95
2022-11-04T18:40:12.255Z,16.90
2022-11-04T18:42:40.169Z,15.05
2022-11-04T18:45:09.075Z,14.77
2022-11-04T18:47:37.011Z,15.77
2022-11-04T18:50:05.204Z,15.48
2022-11-04T18:52:33.069Z,14.45
2022-11-04T18:55:02.541Z,18.08
2022-11-04T18:57:30.494Z,21.23
2022-11-04T18:59:58.381Z,14.93
2022-11-04T19:02:26.362Z,16.10
2022-11-04T19:04:54.620Z,14.20
2022-11-04T19:07:22.495Z,14.25
2022-11-04T19:09:50.379Z,16.58
2022-11-04T19:12:36.910Z,15.70
2022-11-04T19:15:05.515Z,13.40
2022-11-04T19:17:35.839Z,14.00
2022-11-04T19:20:11.115Z,13.07
2022-11-04T19:22:40.845Z,15.80
2022-11-04T19:25:10.256Z,15.93
2022-11-04T19:27:40.039Z,12.88
2022-11-04T19:30:08.932Z,16.30
2022-11-04T19:32:37.062Z,10.27
2022-11-04T19:35:05.374Z,10.37
2022-11-04T19:37:33.383Z,13.32
2022-11-04T19:40:01.317Z,11.03
2022-11-04T19:42:46.570Z,11.63
2022-11-04T19:45:15.911Z,9.70
2022-11-04T19:47:43.856Z,11.40
2022-11-04T19:50:12.649Z,9.43
2022-11-04T19:52:40.592Z,9.57
2022-11-04T19:55:10.092Z,11.05
2022-11-04T19:57:38.724Z,9.00
2022-11-04T20:00:07.893Z,10.73
2022-11-04T20:02:37.216Z,9.50
2022-11-04T20:05:05.467Z,9.60
2022-11-04T20:07:33.907Z,12.77
2022-11-04T20:10:02.197Z,9.55
2022-11-04T20:12:47.393Z,9.20
2022-11-04T20:15:15.588Z,7.75
2022-11-04T20:17:44.838Z,7.65
2022-11-04T20:20:12.852Z,8.57
2022-11-04T20:22:40.792Z,6.47
2022-11-04T20:25:09.294Z,9.93
2022-11-04T20:27:38.869Z,8.52
2022-11-04T20:30:07.790Z,8.70
2022-11-04T20:32:35.708Z,6.10
2022-11-04T20:35:05.466Z,6.82
2022-11-04T20:37:33.424Z,5.05
2022-11-04T20:40:01.631Z,5.75
2022-11-04T20:42:29.922Z,7.22
2022-11-04T20:44:57.959Z,3.60
2022-11-04T20:47:25.915Z,4.50
2022-11-04T20:49:53.829Z,3.50
2022-11-04T20:52:23.063Z,6.22
2022-11-04T20:54:50.968Z,3.70
2022-11-04T20:57:18.928Z,2.90
2022-11-04T20:59:46.820Z,8.27
2022-11-04T21:02:14.880Z,2.92
2022-11-04T21:04:42.926Z,2.88
2022-11-04T21:07:11.255Z,2.40
2022-11-04T21:09:40.475Z,2.90
2022-11-04T21:12:08.724Z,4.70
2022-11-04T21:14:36.644Z,2.90
2022-11-04T21:17:04.816Z,9.63
2022-11-04T21:19:32.928Z,3.35
2022-11-04T21:22:00.836Z,3.35
2022-11-04T21:24:28.777Z,3.28
2022-11-04T21:26:58.718Z,4.40
2022-11-04T21:29:26.611Z,3.10
2022-11-04T21:31:54.516Z,4.32
2022-11-04T21:34:22.432Z,4.03
2022-11-04T21:36:51.957Z,4.00
2022-11-04T21:39:20.010Z,2.65
2022-11-04T21:41:47.908Z,3.15
2022-11-04T21:44:17.174Z,5.15
2022-11-04T21:46:45.163Z,3.85
2022-11-04T21:49:14.292Z,4.13
2022-11-04T21:51:42.202Z,4.63
2022-11-04T21:54:10.104Z,4.20
2022-11-04T21:56:37.995Z,3.13
2022-11-04T21:59:06.606Z,4.15
2022-11-04T22:01:36.014Z,2.78
2022-11-04T22:04:04.641Z,4.30
2022-11-04T22:06:35.689Z,3.35
2022-11-04T22:09:05.568Z,3.13
2022-11-04T22:11:36.456Z,5.97
2022-11-04T22:14:07.282Z,2.88
2022-11-04T22:16:39.031Z,4.40
2022-11-04T22:19:10.367Z,4.20
2022-11-04T22:21:41.422Z,3.35
2022-11-04T22:24:11.019Z,6.63
2022-11-04T22:26:39.911Z,5.78
2022-11-04T22:29:07.959Z,4.20
2022-11-04T22:31:39.110Z,3.00
2022-11-04T22:34:07.878Z,1.90
2022-11-04T22:36:35.854Z,2.65
2022-11-04T22:39:05.433Z,4.18
2022-11-04T22:41:34.366Z,2.40
2022-11-04T22:44:03.148Z,4.55
2022-11-04T22:46:33.232Z,2.20
2022-11-04T22:49:02.661Z,4.65
2022-11-04T22:51:32.417Z,3.70
2022-11-04T22:54:06.520Z,5.00
2022-11-04T22:56:36.100Z,1.93
2022-11-04T22:59:04.433Z,5.57
2022-11-04T23:01:33.869Z,3.13
2022-11-04T23:04:03.592Z,3.72
2022-11-04T23:06:31.619Z,4.22
2022-11-04T23:09:00.802Z,3.58
2022-11-04T23:11:48.309Z,4.68
2022-11-04T23:14:36.789Z,2.30
2022-11-04T23:17:30.002Z,2.80
2022-11-04T23:19:59.261Z,4.70
2022-11-04T23:22:44.934Z,4.07
2022-11-04T23:25:14.528Z,3.47
2022-11-04T23:28:02.755Z,3.70
2022-11-04T23:30:33.324Z,5.43
2022-11-04T23:33:03.099Z,4.20
2022-11-04T23:35:51.511Z,3.00
2022-11-04T23:38:20.185Z,8.30
2022-11-04T23:41:03.178Z,2.70
2022-11-04T23:43:31.178Z,2.65
2022-11-04T23:46:16.530Z,4.00
2022-11-04T23:49:02.097Z,2.90
2022-11-04T23:51:49.378Z,3.53
2022-11-04T23:54:43.366Z,4.40
2022-11-04T23:57:39.868Z,3.40
